Time;durP1;ratioP1;P1;durP2;ratioP2;P2;SDS_P1;SDS_P2;PMS_P1;PMS_P2;Temp;Humidity;BMP_temperature;BMP_pressure;BME280_temperature;BME280_humidity;BME280_pressure;Samples;Min_cycle;Max_cycle;Signal;HPM_P1;HPM_P2
2022/07/31 00:00:36;;;;;;;2.50;2.10;;;;;;;;;;5073522;28;20387;-77
2022/07/31 00:03:02;;;;;;;2.10;1.90;;;;;;;;;;5073468;28;20442;-77
2022/07/31 00:05:29;;;;;;;5.20;3.28;;;;;;;;;;5073392;28;20391;-78
2022/07/31 00:07:55;;;;;;;4.45;2.33;;;;;;;;;;5073122;28;20414;-78
2022/07/31 00:10:22;;;;;;;1.63;1.50;;;;;;;;;;5073509;28;20441;-78
2022/07/31 00:12:48;;;;;;;3.95;2.80;;;;;;;;;;5073362;28;20375;-78
2022/07/31 00:15:14;;;;;;;4.88;3.10;;;;;;;;;;5072925;28;20753;-78
2022/07/31 00:17:41;;;;;;;5.70;3.00;;;;;;;;;;5073166;28;20384;-78
2022/07/31 00:20:08;;;;;;;6.22;2.90;;;;;;;;;;5073265;28;20418;-78
2022/07/31 00:22:34;;;;;;;5.50;2.78;;;;;;;;;;5060826;28;20414;-77
2022/07/31 00:25:00;;;;;;;3.83;2.55;;;;;;;;;;5063087;28;20380;-78
2022/07/31 00:27:26;;;;;;;3.63;2.72;;;;;;;;;;5072751;28;20379;-77
2022/07/31 00:29:52;;;;;;;5.22;3.20;;;;;;;;;;5072907;28;20375;-78
2022/07/31 00:32:18;;;;;;;2.80;2.10;;;;;;;;;;5072557;28;20390;-78
2022/07/31 00:34:44;;;;;;;2.60;2.17;;;;;;;;;;5072725;28;20384;-78
2022/07/31 00:37:10;;;;;;;4.45;4.05;;;;;;;;;;5072639;28;20490;-78
2022/07/31 00:39:37;;;;;;;2.80;2.00;;;;;;;;;;5072710;28;20391;-78
2022/07/31 00:42:04;;;;;;;3.05;2.10;;;;;;;;;;5072598;28;20376;-77
2022/07/31 00:44:30;;;;;;;2.30;2.10;;;;;;;;;;5072468;28;20380;-77
2022/07/31 00:46:56;;;;;;;3.58;2.55;;;;;;;;;;5072796;28;20380;-77
2022/07/31 00:49:22;;;;;;;3.10;2.80;;;;;;;;;;5072554;28;20403;-78
2022/07/31 00:51:48;;;;;;;3.72;2.95;;;;;;;;;;5072538;28;20466;-78
2022/07/31 00:54:14;;;;;;;3.03;2.60;;;;;;;;;;5072548;28;20833;-78
2022/07/31 00:56:40;;;;;;;3.10;2.80;;;;;;;;;;5071017;28;20950;-78
2022/07/31 00:59:06;;;;;;;2.90;2.60;;;;;;;;;;5072463;28;20460;-78
2022/07/31 01:01:32;;;;;;;3.88;2.70;;;;;;;;;;5072316;28;20383;-78
2022/07/31 01:03:58;;;;;;;2.70;2.50;;;;;;;;;;5072401;28;20384;-78
2022/07/31 01:06:24;;;;;;;11.10;8.90;;;;;;;;;;5072172;28;20869;-78
2022/07/31 01:08:50;;;;;;;5.68;4.78;;;;;;;;;;5072275;28;20433;-78
2022/07/31 01:11:16;;;;;;;4.27;3.03;;;;;;;;;;5071442;28;20391;-78
2022/07/31 01:13:52;;;;;;;2.88;2.50;;;;;;;;;;5072229;28;20379;-78
2022/07/31 01:16:18;;;;;;;2.70;2.50;;;;;;;;;;5072044;28;20888;-78
2022/07/31 01:18:45;;;;;;;3.45;2.30;;;;;;;;;;5072106;28;20742;-78
2022/07/31 01:21:16;;;;;;;2.65;2.13;;;;;;;;;;5072169;28;20497;-77
2022/07/31 01:23:45;;;;;;;2.45;2.20;;;;;;;;;;5072167;28;20892;-78
2022/07/31 01:26:14;;;;;;;3.97;2.80;;;;;;;;;;5072189;28;20388;-77
2022/07/31 01:28:50;;;;;;;2.97;2.50;;;;;;;;;;5071955;28;20418;-77
2022/07/31 01:31:19;;;;;;;4.77;2.57;;;;;;;;;;5072154;28;20710;-77
2022/07/31 01:34:05;;;;;;;3.03;2.72;;;;;;;;;;5066325;28;20459;-79
2022/07/31 01:36:33;;;;;;;2.90;2.50;;;;;;;;;;5051636;28;20409;-79
2022/07/31 01:38:59;;;;;;;3.50;2.53;;;;;;;;;;5070235;28;20463;-79
2022/07/31 01:41:28;;;;;;;2.88;2.60;;;;;;;;;;5065028;28;20398;-79
2022/07/31 01:43:55;;;;;;;3.97;2.65;;;;;;;;;;5064296;28;20391;-77
2022/07/31 01:46:23;;;;;;;3.83;2.50;;;;;;;;;;5051518;28;20402;-78
2022/07/31 01:48:49;;;;;;;2.60;2.30;;;;;;;;;;5061374;28;20403;-79
2022/07/31 01:51:16;;;;;;;2.83;2.63;;;;;;;;;;5070594;28;20384;-78
2022/07/31 01:53:45;;;;;;;2.70;2.50;;;;;;;;;;5070434;28;20853;-79
2022/07/31 01:56:11;;;;;;;3.28;2.30;;;;;;;;;;5071398;28;20407;-79
2022/07/31 01:58:42;;;;;;;2.45;2.25;;;;;;;;;;5071854;28;20749;-78
2022/07/31 02:01:09;;;;;;;2.65;2.22;;;;;;;;;;5071071;28;20383;-79
2022/07/31 02:03:36;;;;;;;2.10;1.98;;;;;;;;;;5064922;28;20377;-79
2022/07/31 02:06:02;;;;;;;3.07;2.30;;;;;;;;;;5064730;28;20414;-79
2022/07/31 02:08:29;;;;;;;2.28;1.98;;;;;;;;;;5072002;28;20383;-79
2022/07/31 02:10:55;;;;;;;2.42;2.22;;;;;;;;;;5071809;28;20879;-79
2022/07/31 02:13:22;;;;;;;2.15;1.92;;;;;;;;;;5072183;28;20388;-79
2022/07/31 02:15:49;;;;;;;2.63;2.20;;;;;;;;;;5071555;28;20455;-79
2022/07/31 02:18:16;;;;;;;2.55;2.15;;;;;;;;;;5071571;28;20860;-79
2022/07/31 02:20:43;;;;;;;2.33;2.13;;;;;;;;;;5071632;28;20406;-78
2022/07/31 02:23:10;;;;;;;2.92;2.08;;;;;;;;;;5075238;28;20483;-79
2022/07/31 02:25:37;;;;;;;2.53;2.33;;;;;;;;;;5067991;28;20866;-79
2022/07/31 02:28:07;;;;;;;2.53;2.03;;;;;;;;;;5059479;28;20382;-79
2022/07/31 02:30:34;;;;;;;2.73;2.30;;;;;;;;;;5074955;28;20383;-79
2022/07/31 02:33:00;;;;;;;2.38;2.17;;;;;;;;;;5075136;28;20379;-79
2022/07/31 02:35:26;;;;;;;3.80;2.40;;;;;;;;;;5075213;28;20748;-77
2022/07/31 02:37:53;;;;;;;2.23;2.13;;;;;;;;;;5074973;28;20384;-79
2022/07/31 02:40:20;;;;;;;2.63;2.40;;;;;;;;;;5075220;28;20462;-79
2022/07/31 02:42:46;;;;;;;2.40;2.10;;;;;;;;;;5074953;28;20464;-79
2022/07/31 02:45:13;;;;;;;1.90;1.70;;;;;;;;;;5074924;28;20447;-79
2022/07/31 02:47:39;;;;;;;2.15;2.05;;;;;;;;;;5074756;28;20799;-79
2022/07/31 02:50:06;;;;;;;2.42;2.00;;;;;;;;;;5074893;28;20929;-79
2022/07/31 02:52:33;;;;;;;2.15;1.90;;;;;;;;;;5075052;28;20413;-79
2022/07/31 02:54:59;;;;;;;2.42;2.22;;;;;;;;;;5074676;28;20395;-79
2022/07/31 02:57:25;;;;;;;2.90;1.90;;;;;;;;;;5075039;28;20471;-79
2022/07/31 02:59:51;;;;;;;2.20;2.10;;;;;;;;;;5074863;28;20729;-79
2022/07/31 03:02:18;;;;;;;2.55;1.98;;;;;;;;;;5074656;28;20391;-79
2022/07/31 03:04:44;;;;;;;2.63;2.00;;;;;;;;;;5074565;28;20783;-79
2022/07/31 03:07:10;;;;;;;2.07;1.87;;;;;;;;;;5074602;28;20376;-79
2022/07/31 03:09:36;;;;;;;1.90;1.80;;;;;;;;;;5074274;28;20376;-79
2022/07/31 03:12:02;;;;;;;2.38;2.10;;;;;;;;;;5074411;28;20386;-79
2022/07/31 03:14:28;;;;;;;2.20;2.00;;;;;;;;;;5074322;28;20419;-79
2022/07/31 03:16:55;;;;;;;3.40;2.08;;;;;;;;;;5074168;28;20400;-79
2022/07/31 03:19:22;;;;;;;2.10;1.90;;;;;;;;;;5073085;28;20752;-79
2022/07/31 03:21:48;;;;;;;2.53;1.88;;;;;;;;;;5074205;28;20384;-79
2022/07/31 03:24:15;;;;;;;2.22;1.90;;;;;;;;;;5074200;28;20375;-79
2022/07/31 03:26:41;;;;;;;1.90;1.80;;;;;;;;;;5072754;28;20853;-79
2022/07/31 03:29:07;;;;;;;2.10;1.90;;;;;;;;;;5074360;28;20389;-79
2022/07/31 03:31:33;;;;;;;1.80;1.70;;;;;;;;;;5074134;28;20917;-79
2022/07/31 03:33:59;;;;;;;2.97;1.90;;;;;;;;;;5073556;28;20740;-79
2022/07/31 03:36:26;;;;;;;2.20;2.00;;;;;;;;;;5073873;28;20415;-78
2022/07/31 03:38:52;;;;;;;2.70;1.73;;;;;;;;;;5074178;28;20376;-79
2022/07/31 03:41:18;;;;;;;2.00;1.80;;;;;;;;;;5066513;28;20674;-78
2022/07/31 03:43:44;;;;;;;2.08;1.88;;;;;;;;;;5064354;28;20453;-78
2022/07/31 03:46:11;;;;;;;1.90;1.80;;;;;;;;;;5070702;28;20852;-78
2022/07/31 03:48:37;;;;;;;2.83;1.90;;;;;;;;;;5065425;28;20387;-78
2022/07/31 03:51:03;;;;;;;2.83;1.98;;;;;;;;;;5073185;28;20375;-78
2022/07/31 03:53:35;;;;;;;2.17;1.87;;;;;;;;;;5070261;28;20477;-79
2022/07/31 03:56:02;;;;;;;2.10;1.90;;;;;;;;;;5073353;28;20407;-78
2022/07/31 03:58:28;;;;;;;2.70;1.90;;;;;;;;;;5073535;28;20469;-78
2022/07/31 04:00:54;;;;;;;3.13;2.00;;;;;;;;;;5072106;28;20460;-78
2022/07/31 04:03:20;;;;;;;2.90;2.13;;;;;;;;;;5053790;28;20426;-78
2022/07/31 04:05:46;;;;;;;2.50;2.08;;;;;;;;;;5047355;28;20381;-78
2022/07/31 04:08:14;;;;;;;1.70;1.60;;;;;;;;;;5047175;28;20442;-78
2022/07/31 04:10:40;;;;;;;3.08;2.10;;;;;;;;;;5072425;28;20470;-78
2022/07/31 04:13:06;;;;;;;2.75;1.80;;;;;;;;;;5072367;28;20901;-78
2022/07/31 04:15:33;;;;;;;2.28;1.83;;;;;;;;;;5072148;28;20404;-78
2022/07/31 04:17:59;;;;;;;2.05;1.90;;;;;;;;;;5072237;28;20407;-78
2022/07/31 04:20:25;;;;;;;1.92;1.70;;;;;;;;;;5072314;28;20383;-78
2022/07/31 04:22:51;;;;;;;1.83;1.73;;;;;;;;;;5058340;28;20391;-78
2022/07/31 04:25:17;;;;;;;2.10;1.70;;;;;;;;;;5072935;28;20388;-78
2022/07/31 04:27:43;;;;;;;1.90;1.80;;;;;;;;;;5072647;28;20467;-78
2022/07/31 04:30:09;;;;;;;1.90;1.80;;;;;;;;;;5072821;28;20394;-78
2022/07/31 04:32:35;;;;;;;3.05;2.00;;;;;;;;;;5072925;28;20451;-79
2022/07/31 04:35:02;;;;;;;1.95;1.80;;;;;;;;;;5072756;28;20400;-78
2022/07/31 04:37:28;;;;;;;2.20;1.80;;;;;;;;;;5072534;28;21018;-79
2022/07/31 04:39:54;;;;;;;2.15;1.95;;;;;;;;;;5072813;28;20384;-78
2022/07/31 04:42:20;;;;;;;1.98;1.80;;;;;;;;;;5072709;28;20461;-79
2022/07/31 04:44:46;;;;;;;2.20;1.70;;;;;;;;;;5071767;28;20399;-78
2022/07/31 04:47:12;;;;;;;1.80;1.70;;;;;;;;;;5072633;28;20774;-78
2022/07/31 04:49:39;;;;;;;2.88;1.92;;;;;;;;;;5072518;28;20380;-78
2022/07/31 04:52:05;;;;;;;1.98;1.65;;;;;;;;;;5072647;28;20467;-79
2022/07/31 04:54:32;;;;;;;3.15;1.88;;;;;;;;;;5072508;28;20368;-78
2022/07/31 04:56:58;;;;;;;2.53;1.67;;;;;;;;;;5072398;28;20399;-78
2022/07/31 04:59:24;;;;;;;1.63;1.52;;;;;;;;;;5072377;28;20425;-78
2022/07/31 05:01:50;;;;;;;2.60;1.80;;;;;;;;;;5072466;28;20391;-78
2022/07/31 05:04:17;;;;;;;2.53;2.00;;;;;;;;;;5072489;28;20399;-78
2022/07/31 05:06:44;;;;;;;1.90;1.70;;;;;;;;;;5072104;28;20376;-78
2022/07/31 05:09:14;;;;;;;1.80;1.70;;;;;;;;;;5072404;28;20868;-78
2022/07/31 05:11:40;;;;;;;1.88;1.73;;;;;;;;;;5072258;28;20382;-78
2022/07/31 05:14:07;;;;;;;1.80;1.70;;;;;;;;;;5072340;28;20376;-78
2022/07/31 05:16:34;;;;;;;2.13;1.80;;;;;;;;;;5072281;28;20483;-78
2022/07/31 05:19:00;;;;;;;2.10;1.90;;;;;;;;;;5072365;28;20372;-78
2022/07/31 05:21:26;;;;;;;3.00;1.90;;;;;;;;;;5072258;28;20372;-79
2022/07/31 05:23:54;;;;;;;2.17;1.75;;;;;;;;;;5072175;28;20376;-79
2022/07/31 05:26:20;;;;;;;1.95;1.75;;;;;;;;;;5072448;28;20958;-79
2022/07/31 05:28:48;;;;;;;1.70;1.60;;;;;;;;;;5072095;28;20376;-78
2022/07/31 05:31:14;;;;;;;1.90;1.70;;;;;;;;;;5068938;28;20791;-78
2022/07/31 05:33:40;;;;;;;2.35;1.60;;;;;;;;;;5057295;28;20404;-78
2022/07/31 05:36:07;;;;;;;2.90;1.85;;;;;;;;;;5055516;28;21117;-79
2022/07/31 05:38:33;;;;;;;2.67;1.73;;;;;;;;;;5052752;28;20373;-79
2022/07/31 05:40:59;;;;;;;2.28;2.08;;;;;;;;;;5071553;28;20376;-79
2022/07/31 05:43:25;;;;;;;2.70;2.00;;;;;;;;;;5071433;28;20402;-78
2022/07/31 05:45:51;;;;;;;2.28;1.88;;;;;;;;;;5052760;28;20383;-79
2022/07/31 05:48:17;;;;;;;2.30;1.95;;;;;;;;;;5058730;28;20383;-78
2022/07/31 05:50:44;;;;;;;2.42;1.80;;;;;;;;;;5071984;28;20387;-78
2022/07/31 05:53:16;;;;;;;2.55;2.20;;;;;;;;;;5071872;28;20376;-79
2022/07/31 05:55:43;;;;;;;2.63;2.42;;;;;;;;;;5071753;28;20407;-78
2022/07/31 05:58:09;;;;;;;2.85;1.90;;;;;;;;;;5075713;28;20737;-79
2022/07/31 06:00:36;;;;;;;3.28;1.70;;;;;;;;;;5075784;28;20381;-78
2022/07/31 06:03:02;;;;;;;3.15;1.85;;;;;;;;;;5075693;28;20860;-79
2022/07/31 06:05:28;;;;;;;2.63;2.05;;;;;;;;;;5076019;28;20517;-79
2022/07/31 06:07:55;;;;;;;2.85;1.88;;;;;;;;;;5075541;28;20876;-79
2022/07/31 06:10:21;;;;;;;1.67;1.58;;;;;;;;;;5075625;28;20386;-79
2022/07/31 06:12:47;;;;;;;1.77;1.67;;;;;;;;;;5070235;28;20388;-79
2022/07/31 06:15:13;;;;;;;4.07;1.90;;;;;;;;;;5073217;28;20453;-79
2022/07/31 06:17:40;;;;;;;1.88;1.70;;;;;;;;;;5075388;28;20372;-78
2022/07/31 06:20:06;;;;;;;1.90;1.70;;;;;;;;;;5061961;28;20389;-79
2022/07/31 06:22:32;;;;;;;2.30;1.75;;;;;;;;;;5062730;28;20743;-78
2022/07/31 06:24:58;;;;;;;2.85;1.70;;;;;;;;;;5060084;28;20411;-79
2022/07/31 06:27:24;;;;;;;3.97;2.00;;;;;;;;;;5057103;28;20377;-79
2022/07/31 06:29:50;;;;;;;2.40;2.20;;;;;;;;;;5067560;28;20791;-79
2022/07/31 06:32:16;;;;;;;2.28;1.83;;;;;;;;;;5053616;28;20396;-79
2022/07/31 06:34:43;;;;;;;2.00;1.80;;;;;;;;;;5066034;28;20944;-79
2022/07/31 06:37:10;;;;;;;2.10;1.90;;;;;;;;;;5074972;28;20811;-79
2022/07/31 06:39:38;;;;;;;1.85;1.75;;;;;;;;;;5074303;28;20607;-79
2022/07/31 06:42:04;;;;;;;2.05;1.83;;;;;;;;;;5075006;28;20384;-79
2022/07/31 06:44:31;;;;;;;2.22;1.95;;;;;;;;;;5067572;28;20960;-79
2022/07/31 06:46:57;;;;;;;3.23;2.00;;;;;;;;;;5074154;28;20934;-79
2022/07/31 06:49:23;;;;;;;2.53;1.90;;;;;;;;;;5071196;28;20389;-79
2022/07/31 06:51:49;;;;;;;2.03;1.85;;;;;;;;;;5055766;28;20404;-79
2022/07/31 06:54:15;;;;;;;4.03;2.00;;;;;;;;;;5060054;28;20384;-79
2022/07/31 06:56:41;;;;;;;2.35;2.10;;;;;;;;;;5053338;28;20409;-79
2022/07/31 06:59:07;;;;;;;2.83;2.05;;;;;;;;;;5056332;28;20850;-79
2022/07/31 07:01:33;;;;;;;2.38;2.10;;;;;;;;;;5055958;28;20753;-79
2022/07/31 07:03:59;;;;;;;2.78;2.00;;;;;;;;;;5058195;28;20413;-79
2022/07/31 07:06:25;;;;;;;2.90;1.90;;;;;;;;;;5055302;28;20788;-79
2022/07/31 07:08:51;;;;;;;2.20;2.00;;;;;;;;;;5053907;28;20493;-79
2022/07/31 07:11:18;;;;;;;2.70;1.85;;;;;;;;;;5055127;28;20396;-79
2022/07/31 07:13:44;;;;;;;3.10;1.80;;;;;;;;;;5057774;28;20885;-79
2022/07/31 07:16:10;;;;;;;2.75;2.00;;;;;;;;;;5055468;28;20423;-79
2022/07/31 07:18:36;;;;;;;2.17;1.85;;;;;;;;;;5057990;28;20386;-79
2022/07/31 07:21:03;;;;;;;2.40;2.20;;;;;;;;;;5074067;28;20828;-79
2022/07/31 07:23:29;;;;;;;2.97;1.80;;;;;;;;;;5057919;28;20578;-79
2022/07/31 07:25:55;;;;;;;2.50;1.92;;;;;;;;;;5054711;28;20395;-79
2022/07/31 07:28:21;;;;;;;3.55;1.95;;;;;;;;;;5055448;28;20396;-80
2022/07/31 07:30:47;;;;;;;2.28;1.90;;;;;;;;;;5051888;28;20389;-79
2022/07/31 07:33:13;;;;;;;2.65;1.77;;;;;;;;;;5055849;28;20385;-80
2022/07/31 07:35:39;;;;;;;3.53;1.90;;;;;;;;;;5072771;28;20414;-80
2022/07/31 07:38:06;;;;;;;3.42;1.85;;;;;;;;;;5063211;28;20464;-80
2022/07/31 07:40:32;;;;;;;1.90;1.80;;;;;;;;;;5071138;28;20367;-80
2022/07/31 07:42:58;;;;;;;2.60;1.90;;;;;;;;;;5074040;28;20737;-80
2022/07/31 07:45:24;;;;;;;2.60;1.80;;;;;;;;;;5057930;28;20382;-80
2022/07/31 07:47:50;;;;;;;4.68;1.80;;;;;;;;;;5070892;28;20384;-80
2022/07/31 07:50:17;;;;;;;1.90;1.70;;;;;;;;;;5073579;28;20875;-79
2022/07/31 07:52:43;;;;;;;2.50;1.70;;;;;;;;;;5065123;28;20393;-80
2022/07/31 07:55:09;;;;;;;2.60;1.60;;;;;;;;;;5072260;28;20963;-79
2022/07/31 07:57:36;;;;;;;4.10;1.73;;;;;;;;;;5066635;28;20732;-79
2022/07/31 08:00:05;;;;;;;2.05;1.70;;;;;;;;;;5068851;28;20386;-79
2022/07/31 08:02:31;;;;;;;2.20;1.90;;;;;;;;;;5056730;28;20874;-80
2022/07/31 08:04:57;;;;;;;2.13;1.90;;;;;;;;;;5067973;28;20376;-79
2022/07/31 08:07:30;;;;;;;2.28;1.75;;;;;;;;;;5072786;28;20446;-79
2022/07/31 08:09:56;;;;;;;2.65;1.70;;;;;;;;;;5073218;28;20376;-79
2022/07/31 08:12:23;;;;;;;3.47;2.15;;;;;;;;;;5061805;28;20883;-79
2022/07/31 08:14:49;;;;;;;2.45;1.85;;;;;;;;;;5071896;28;20441;-79
2022/07/31 08:17:15;;;;;;;3.28;1.95;;;;;;;;;;5073145;28;20737;-79
2022/07/31 08:19:41;;;;;;;3.83;2.22;;;;;;;;;;5072883;28;20441;-79
2022/07/31 08:22:08;;;;;;;2.55;2.10;;;;;;;;;;5073274;28;20410;-79
2022/07/31 08:24:34;;;;;;;2.50;1.88;;;;;;;;;;5073055;28;20407;-79
2022/07/31 08:29:44;;;;;;;4.65;3.00;;;;;;;;;;5057175;28;20479;-79
2022/07/31 08:32:11;;;;;;;6.25;2.88;;;;;;;;;;5073078;28;20383;-79
2022/07/31 08:34:37;;;;;;;4.20;2.92;;;;;;;;;;5072828;28;20467;-79
2022/07/31 08:37:05;;;;;;;3.90;2.20;;;;;;;;;;5072474;28;20457;-79
2022/07/31 08:39:31;;;;;;;4.97;1.83;;;;;;;;;;5072751;28;20375;-79
2022/07/31 08:41:57;;;;;;;3.13;2.05;;;;;;;;;;5072679;28;20463;-79
2022/07/31 08:44:23;;;;;;;3.13;1.77;;;;;;;;;;5072590;28;20861;-79
2022/07/31 08:46:51;;;;;;;2.60;1.30;;;;;;;;;;5072761;28;20426;-79
2022/07/31 08:49:18;;;;;;;2.22;1.40;;;;;;;;;;5072562;28;20970;-79
2022/07/31 08:51:44;;;;;;;1.40;1.30;;;;;;;;;;5072646;28;20491;-79
2022/07/31 08:54:10;;;;;;;2.20;1.20;;;;;;;;;;5072588;28;20384;-79
2022/07/31 08:56:39;;;;;;;3.38;1.90;;;;;;;;;;5072286;28;20414;-79
2022/07/31 08:59:06;;;;;;;3.13;1.63;;;;;;;;;;5072576;28;20388;-79
2022/07/31 09:01:35;;;;;;;3.83;1.70;;;;;;;;;;5072431;28;20380;-79
2022/07/31 09:04:02;;;;;;;2.97;2.00;;;;;;;;;;5072596;28;20384;-80
2022/07/31 09:06:28;;;;;;;1.88;1.20;;;;;;;;;;5072296;28;20924;-79
2022/07/31 09:08:57;;;;;;;1.55;1.42;;;;;;;;;;5072412;28;20857;-79
2022/07/31 09:11:23;;;;;;;2.97;1.83;;;;;;;;;;5072308;28;20446;-80
2022/07/31 09:13:59;;;;;;;1.63;1.10;;;;;;;;;;5072397;28;20375;-80
2022/07/31 09:16:25;;;;;;;2.55;1.50;;;;;;;;;;5072442;28;20413;-79
2022/07/31 09:19:02;;;;;;;1.38;1.10;;;;;;;;;;5072287;28;20375;-80
2022/07/31 09:21:41;;;;;;;2.30;1.10;;;;;;;;;;5072286;28;20372;-79
2022/07/31 09:24:11;;;;;;;2.40;1.40;;;;;;;;;;5072176;28;20391;-79
2022/07/31 09:26:39;;;;;;;3.40;1.70;;;;;;;;;;5072075;28;20462;-79
2022/07/31 09:29:11;;;;;;;1.30;1.00;;;;;;;;;;5072035;28;20462;-80
2022/07/31 09:31:38;;;;;;;2.45;0.98;;;;;;;;;;5071686;28;20368;-79
2022/07/31 09:34:05;;;;;;;2.08;0.90;;;;;;;;;;5072186;28;20740;-80
2022/07/31 09:36:31;;;;;;;2.58;0.98;;;;;;;;;;5071990;28;20412;-79
2022/07/31 09:39:00;;;;;;;2.10;1.20;;;;;;;;;;5072041;28;20408;-79
2022/07/31 09:41:26;;;;;;;3.50;2.10;;;;;;;;;;5052857;28;20433;-80
2022/07/31 09:43:59;;;;;;;1.88;1.40;;;;;;;;;;5052596;28;20434;-80
2022/07/31 09:46:26;;;;;;;2.85;1.23;;;;;;;;;;5058993;28;20432;-79
2022/07/31 09:48:53;;;;;;;2.25;1.15;;;;;;;;;;5063117;28;20863;-79
2022/07/31 09:51:19;;;;;;;2.05;1.27;;;;;;;;;;5062796;28;20392;-79
2022/07/31 09:53:46;;;;;;;2.10;1.20;;;;;;;;;;5071913;28;20387;-79
2022/07/31 09:56:14;;;;;;;5.28;2.63;;;;;;;;;;5071764;28;20400;-79
2022/07/31 09:58:41;;;;;;;2.40;2.07;;;;;;;;;;5071892;28;20371;-79
2022/07/31 10:01:11;;;;;;;1.50;1.00;;;;;;;;;;5052273;28;20482;-79
2022/07/31 10:03:37;;;;;;;1.25;1.13;;;;;;;;;;5057864;28;20486;-79
2022/07/31 10:06:05;;;;;;;2.28;1.13;;;;;;;;;;5068247;28;20389;-79
2022/07/31 10:08:33;;;;;;;1.40;1.05;;;;;;;;;;5058636;28;20868;-79
2022/07/31 10:11:01;;;;;;;1.85;1.00;;;;;;;;;;5071791;28;20380;-79
2022/07/31 10:13:27;;;;;;;1.73;1.10;;;;;;;;;;5052488;28;20424;-78
2022/07/31 10:15:53;;;;;;;2.95;1.65;;;;;;;;;;5050941;28;20404;-79
2022/07/31 10:18:19;;;;;;;2.70;1.80;;;;;;;;;;5052888;28;20413;-79
2022/07/31 10:20:51;;;;;;;1.00;0.95;;;;;;;;;;5053116;28;20377;-79
2022/07/31 10:23:21;;;;;;;1.75;1.00;;;;;;;;;;5053183;28;20782;-79
2022/07/31 10:25:51;;;;;;;1.30;1.20;;;;;;;;;;5046419;28;20889;-79
2022/07/31 10:28:18;;;;;;;1.67;1.27;;;;;;;;;;5060366;28;20441;-79
2022/07/31 10:30:45;;;;;;;2.40;1.10;;;;;;;;;;5071516;28;20391;-79
2022/07/31 10:33:11;;;;;;;1.23;1.10;;;;;;;;;;5066004;28;20460;-79
2022/07/31 10:35:51;;;;;;;1.17;1.00;;;;;;;;;;5051649;28;20405;-79
2022/07/31 10:38:20;;;;;;;1.77;1.10;;;;;;;;;;5050478;28;20435;-79
2022/07/31 10:40:49;;;;;;;2.67;1.30;;;;;;;;;;5050362;28;20377;-80
2022/07/31 10:43:27;;;;;;;3.88;2.33;;;;;;;;;;5051775;28;20378;-79
2022/07/31 10:45:54;;;;;;;1.70;1.13;;;;;;;;;;5056381;28;20435;-79
2022/07/31 10:48:21;;;;;;;3.17;1.70;;;;;;;;;;5055061;28;20575;-79
2022/07/31 10:50:48;;;;;;;3.13;1.38;;;;;;;;;;5054578;28;20377;-79
2022/07/31 10:53:15;;;;;;;1.90;1.10;;;;;;;;;;5056934;28;20382;-79
2022/07/31 10:55:41;;;;;;;3.08;1.40;;;;;;;;;;5063837;28;20987;-79
2022/07/31 10:58:12;;;;;;;3.77;1.30;;;;;;;;;;5056931;28;20509;-79
2022/07/31 11:00:39;;;;;;;2.00;1.00;;;;;;;;;;5046529;28;20507;-79
2022/07/31 11:03:11;;;;;;;1.60;1.00;;;;;;;;;;5046082;28;20725;-79
2022/07/31 11:05:37;;;;;;;1.90;1.10;;;;;;;;;;5053795;28;20430;-79
2022/07/31 11:08:05;;;;;;;1.43;1.10;;;;;;;;;;5074315;28;20868;-80
2022/07/31 11:10:32;;;;;;;2.40;1.20;;;;;;;;;;5074554;28;20470;-79
2022/07/31 11:13:06;;;;;;;1.27;0.93;;;;;;;;;;5074650;28;20375;-79
2022/07/31 11:15:32;;;;;;;1.90;1.08;;;;;;;;;;5074388;28;20426;-79
2022/07/31 11:17:59;;;;;;;3.75;1.20;;;;;;;;;;5074287;28;20376;-79
2022/07/31 11:20:26;;;;;;;1.30;1.00;;;;;;;;;;5074322;28;20390;-79
2022/07/31 11:22:56;;;;;;;2.72;1.08;;;;;;;;;;5074438;28;20415;-79
2022/07/31 11:25:22;;;;;;;1.30;1.10;;;;;;;;;;5074264;28;20379;-79
2022/07/31 11:27:49;;;;;;;1.43;1.03;;;;;;;;;;5074062;28;20438;-79
2022/07/31 11:30:15;;;;;;;1.70;1.20;;;;;;;;;;5074134;28;20415;-79
2022/07/31 11:32:48;;;;;;;2.50;1.23;;;;;;;;;;5068443;28;20407;-79
2022/07/31 11:35:23;;;;;;;3.35;1.30;;;;;;;;;;5058103;28;20899;-79
2022/07/31 11:37:50;;;;;;;2.22;1.10;;;;;;;;;;5067282;28;20482;-79
2022/07/31 11:40:17;;;;;;;1.40;1.10;;;;;;;;;;5073910;28;20398;-79
2022/07/31 11:42:44;;;;;;;1.30;1.15;;;;;;;;;;5074109;28;20376;-79
2022/07/31 11:45:13;;;;;;;1.90;1.00;;;;;;;;;;5073886;28;20410;-79
2022/07/31 11:47:43;;;;;;;1.73;1.00;;;;;;;;;;5073680;28;20438;-80
2022/07/31 11:50:10;;;;;;;2.55;0.90;;;;;;;;;;5073674;28;20382;-79
2022/07/31 11:52:36;;;;;;;1.90;0.93;;;;;;;;;;5073622;28;20382;-79
2022/07/31 11:55:05;;;;;;;2.28;1.30;;;;;;;;;;5073224;28;20425;-79
2022/07/31 11:57:32;;;;;;;3.15;1.10;;;;;;;;;;5073624;28;20371;-79
2022/07/31 11:59:58;;;;;;;2.38;1.00;;;;;;;;;;5073698;28;20427;-79
2022/07/31 12:02:24;;;;;;;2.03;1.00;;;;;;;;;;5073690;28;20383;-79
2022/07/31 12:04:50;;;;;;;1.05;0.90;;;;;;;;;;5073374;28;20372;-79
2022/07/31 12:07:16;;;;;;;1.98;1.00;;;;;;;;;;5073360;28;20746;-79
2022/07/31 12:09:43;;;;;;;2.22;0.90;;;;;;;;;;5073091;28;20474;-79
2022/07/31 12:12:10;;;;;;;0.98;0.93;;;;;;;;;;5061720;28;20392;-80
2022/07/31 12:14:37;;;;;;;1.73;1.10;;;;;;;;;;5073497;28;20382;-80
2022/07/31 12:17:04;;;;;;;1.60;1.00;;;;;;;;;;5072996;28;20408;-79
2022/07/31 12:19:32;;;;;;;1.02;0.80;;;;;;;;;;5073186;28;20450;-79
2022/07/31 12:21:58;;;;;;;0.98;0.88;;;;;;;;;;5053848;28;20719;-79
2022/07/31 12:24:24;;;;;;;2.13;0.82;;;;;;;;;;5063309;28;20372;-79
2022/07/31 12:26:52;;;;;;;1.75;0.80;;;;;;;;;;5058829;28;20388;-79
2022/07/31 12:29:18;;;;;;;2.00;0.90;;;;;;;;;;5072953;28;20379;-79
2022/07/31 12:31:44;;;;;;;1.40;0.80;;;;;;;;;;5073210;28;20447;-79
2022/07/31 12:34:10;;;;;;;1.70;0.70;;;;;;;;;;5068962;28;20460;-79
2022/07/31 12:36:36;;;;;;;1.08;0.80;;;;;;;;;;5072743;28;20465;-79
2022/07/31 12:39:04;;;;;;;3.47;0.95;;;;;;;;;;5072112;28;20876;-79
2022/07/31 12:41:30;;;;;;;2.10;0.90;;;;;;;;;;5054137;28;20397;-79
2022/07/31 12:44:07;;;;;;;1.65;0.88;;;;;;;;;;5053356;28;20402;-77
2022/07/31 12:46:35;;;;;;;1.90;0.90;;;;;;;;;;5055505;28;20385;-80
2022/07/31 12:49:01;;;;;;;0.80;0.80;;;;;;;;;;5063518;28;20748;-79
2022/07/31 12:51:27;;;;;;;1.75;1.00;;;;;;;;;;5056662;28;20792;-79
2022/07/31 12:53:53;;;;;;;2.17;1.40;;;;;;;;;;5049445;28;20480;-80
2022/07/31 12:56:19;;;;;;;1.00;0.90;;;;;;;;;;5060593;28;20487;-79
2022/07/31 12:58:45;;;;;;;2.10;0.95;;;;;;;;;;5061067;28;20383;-79
2022/07/31 13:01:11;;;;;;;1.30;0.95;;;;;;;;;;5064539;28;20429;-80
2022/07/31 13:03:37;;;;;;;1.20;0.80;;;;;;;;;;5071977;28;20376;-80
2022/07/31 13:06:03;;;;;;;2.13;0.80;;;;;;;;;;5063727;28;20389;-80
2022/07/31 13:08:29;;;;;;;2.17;0.85;;;;;;;;;;5064937;28;20883;-80
2022/07/31 13:10:55;;;;;;;1.65;0.90;;;;;;;;;;5072079;28;20398;-79
2022/07/31 13:13:22;;;;;;;0.93;0.85;;;;;;;;;;5071586;28;20920;-80
2022/07/31 13:15:48;;;;;;;1.70;0.82;;;;;;;;;;5072146;28;20473;-80
2022/07/31 13:18:14;;;;;;;1.70;0.90;;;;;;;;;;5072295;28;20433;-79
2022/07/31 13:20:40;;;;;;;1.02;0.80;;;;;;;;;;5058383;28;20415;-80
2022/07/31 13:23:06;;;;;;;1.63;0.90;;;;;;;;;;5053315;28;20904;-80
2022/07/31 13:25:32;;;;;;;1.17;1.00;;;;;;;;;;5053356;28;20390;-80
2022/07/31 13:27:58;;;;;;;1.40;0.90;;;;;;;;;;5055896;28;20385;-80
2022/07/31 13:30:26;;;;;;;1.23;0.90;;;;;;;;;;5056058;28;20391;-81
2022/07/31 13:32:52;;;;;;;1.30;0.98;;;;;;;;;;5072160;28;20387;-81
2022/07/31 13:35:20;;;;;;;2.00;0.88;;;;;;;;;;5067492;28;20904;-81
2022/07/31 13:37:46;;;;;;;1.65;1.00;;;;;;;;;;5064826;28;20800;-81
2022/07/31 13:40:13;;;;;;;0.95;0.80;;;;;;;;;;5060822;28;20367;-81
2022/07/31 13:42:39;;;;;;;1.67;0.80;;;;;;;;;;5061372;28;20875;-82
2022/07/31 13:45:05;;;;;;;1.00;0.90;;;;;;;;;;5051787;28;20454;-81
2022/07/31 13:47:31;;;;;;;6.45;2.80;;;;;;;;;;5060087;28;20381;-81
2022/07/31 13:49:57;;;;;;;2.08;1.00;;;;;;;;;;5060860;28;20399;-81
2022/07/31 13:52:23;;;;;;;1.95;1.00;;;;;;;;;;5064507;28;20870;-81
2022/07/31 13:54:49;;;;;;;1.10;0.90;;;;;;;;;;5069412;28;20376;-82
2022/07/31 13:57:15;;;;;;;1.33;0.80;;;;;;;;;;5062495;28;20410;-81
2022/07/31 13:59:41;;;;;;;2.00;1.10;;;;;;;;;;5057829;28;20799;-81
2022/07/31 14:02:07;;;;;;;1.30;0.80;;;;;;;;;;5070637;28;20466;-81
2022/07/31 14:04:33;;;;;;;1.90;1.10;;;;;;;;;;5069332;28;20380;-82
2022/07/31 14:06:59;;;;;;;2.53;1.03;;;;;;;;;;5047244;28;20455;-81
2022/07/31 14:09:25;;;;;;;1.50;1.00;;;;;;;;;;5071665;28;20380;-81
2022/07/31 14:11:51;;;;;;;1.45;0.80;;;;;;;;;;5071705;28;20376;-81
2022/07/31 14:14:17;;;;;;;1.10;0.90;;;;;;;;;;5071841;28;20376;-81
2022/07/31 14:16:43;;;;;;;1.75;1.00;;;;;;;;;;5071493;28;20442;-81
2022/07/31 14:19:09;;;;;;;2.00;0.70;;;;;;;;;;5075391;28;20399;-81
2022/07/31 14:21:35;;;;;;;1.20;0.90;;;;;;;;;;5075384;28;20714;-81
2022/07/31 14:24:01;;;;;;;14.48;1.55;;;;;;;;;;5075414;28;20367;-81
2022/07/31 14:26:27;;;;;;;4.20;1.60;;;;;;;;;;5075303;28;20868;-81
2022/07/31 14:28:53;;;;;;;2.25;1.30;;;;;;;;;;5075200;28;20391;-81
2022/07/31 14:31:19;;;;;;;2.40;0.93;;;;;;;;;;5075470;28;20380;-81
2022/07/31 14:33:45;;;;;;;1.05;0.80;;;;;;;;;;5075143;28;20387;-81
2022/07/31 14:36:11;;;;;;;1.30;0.98;;;;;;;;;;5074880;28;20403;-81
2022/07/31 14:38:37;;;;;;;2.25;0.90;;;;;;;;;;5075080;28;20710;-81
2022/07/31 14:41:03;;;;;;;1.17;0.85;;;;;;;;;;5074994;28;20443;-81
2022/07/31 14:43:29;;;;;;;2.53;1.00;;;;;;;;;;5075083;28;20372;-81